DILIA BGGH-BGMQ
Flight info
| Callsign | DILIA |
|---|---|
| Flight time | 0h 31m |
| Altitude | 13000 |
| Route | ASCOX1A ASCOX DCT MADIX |
| Aircraft | C525/L-SDFGRWY/S |
Departure
| Time | 2026-04-23 11:20 |
|---|---|
| Airport | Nuuk International Airport (BGGH) |
Arrival
| Time | 2026-04-23 11:51 |
|---|---|
| Airport | Maniitsoq Airport (BGMQ) |
| Time | Latitude | Longitude | Altitude | Speed | Heading |
|---|---|---|---|---|---|
| 2026-04-23 11:05 | 64.19095 | -51.67329 | 272 ft | 0 kts | 13° |
| 2026-04-23 11:16 | 64.19102 | -51.67336 | 272 ft | 3 kts | 300° |
| 2026-04-23 11:16 | 64.19084 | -51.67440 | 272 ft | 11 kts | 251° |
| 2026-04-23 11:17 | 64.19074 | -51.67639 | 272 ft | 15 kts | 290° |
| 2026-04-23 11:17 | 64.19102 | -51.67864 | 275 ft | 14 kts | 262° |
| 2026-04-23 11:17 | 64.19004 | -51.67995 | 275 ft | 21 kts | 198° |
| 2026-04-23 11:17 | 64.18838 | -51.68121 | 271 ft | 29 kts | 197° |
| 2026-04-23 11:18 | 64.18630 | -51.68275 | 266 ft | 31 kts | 199° |
| 2026-04-23 11:18 | 64.18415 | -51.68438 | 265 ft | 33 kts | 198° |
| 2026-04-23 11:18 | 64.18252 | -51.68542 | 265 ft | 12 kts | 166° |
| 2026-04-23 11:18 | 64.18169 | -51.68539 | 265 ft | 10 kts | 246° |
| 2026-04-23 11:19 | 64.18201 | -51.68602 | 265 ft | 7 kts | 30° |
| 2026-04-23 11:19 | 64.18228 | -51.68579 | 265 ft | 0 kts | 17° |
| 2026-04-23 11:20 | 64.18253 | -51.68560 | 265 ft | 23 kts | 18° |
| 2026-04-23 11:20 | 64.18632 | -51.68273 | 266 ft | 87 kts | 18° |
| 2026-04-23 11:20 | 64.19310 | -51.67829 | 524 ft | 108 kts | 19° |
| 2026-04-23 11:20 | 64.20055 | -51.67298 | 935 ft | 117 kts | 21° |
| 2026-04-23 11:21 | 64.20891 | -51.67135 | 1350 ft | 131 kts | 352° |
| 2026-04-23 11:21 | 64.21815 | -51.67857 | 1730 ft | 151 kts | 340° |
| 2026-04-23 11:21 | 64.22816 | -51.68907 | 2187 ft | 167 kts | 337° |
| 2026-04-23 11:21 | 64.23912 | -51.70119 | 2630 ft | 194 kts | 335° |
| 2026-04-23 11:22 | 64.25228 | -51.71579 | 3118 ft | 227 kts | 335° |
| 2026-04-23 11:22 | 64.26746 | -51.73255 | 3574 ft | 257 kts | 335° |
| 2026-04-23 11:22 | 64.28384 | -51.75065 | 4440 ft | 265 kts | 334° |
| 2026-04-23 11:22 | 64.30059 | -51.76917 | 5233 ft | 274 kts | 333° |
| 2026-04-23 11:23 | 64.31747 | -51.78778 | 6123 ft | 276 kts | 333° |
| 2026-04-23 11:23 | 64.33491 | -51.80704 | 6929 ft | 281 kts | 333° |
| 2026-04-23 11:23 | 64.35262 | -51.82635 | 7709 ft | 285 kts | 333° |
| 2026-04-23 11:23 | 64.37062 | -51.84465 | 8471 ft | 289 kts | 334° |
| 2026-04-23 11:24 | 64.38921 | -51.86323 | 9150 ft | 293 kts | 333° |
| 2026-04-23 11:24 | 64.40787 | -51.88179 | 9784 ft | 298 kts | 333° |
| 2026-04-23 11:24 | 64.42690 | -51.90072 | 10446 ft | 300 kts | 332° |
| 2026-04-23 11:24 | 64.44591 | -51.91965 | 11045 ft | 303 kts | 333° |
| 2026-04-23 11:25 | 64.46528 | -51.93903 | 11660 ft | 305 kts | 332° |
| 2026-04-23 11:25 | 64.48498 | -51.95876 | 12163 ft | 311 kts | 333° |
| 2026-04-23 11:25 | 64.50462 | -51.97859 | 12742 ft | 310 kts | 333° |
| 2026-04-23 11:25 | 64.52438 | -51.99851 | 13224 ft | 314 kts | 332° |
| 2026-04-23 11:26 | 64.54431 | -52.01870 | 13384 ft | 321 kts | 332° |
| 2026-04-23 11:26 | 64.56504 | -52.03962 | 13406 ft | 324 kts | 333° |
| 2026-04-23 11:26 | 64.58557 | -52.06072 | 13407 ft | 327 kts | 332° |
| 2026-04-23 11:26 | 64.60632 | -52.08284 | 13405 ft | 328 kts | 332° |
| 2026-04-23 11:27 | 64.62695 | -52.10553 | 13408 ft | 330 kts | 331° |
| 2026-04-23 11:27 | 64.64761 | -52.12814 | 13406 ft | 332 kts | 331° |
| 2026-04-23 11:27 | 64.66845 | -52.15094 | 13410 ft | 334 kts | 331° |
| 2026-04-23 11:27 | 64.68941 | -52.17382 | 13408 ft | 335 kts | 331° |
| 2026-04-23 11:28 | 64.71056 | -52.19700 | 13407 ft | 336 kts | 331° |
| 2026-04-23 11:28 | 64.73170 | -52.22017 | 13411 ft | 337 kts | 331° |
| 2026-04-23 11:28 | 64.75307 | -52.24359 | 13410 ft | 338 kts | 331° |
| 2026-04-23 11:28 | 64.77400 | -52.26671 | 13410 ft | 338 kts | 331° |
| 2026-04-23 11:29 | 64.79541 | -52.29025 | 13410 ft | 338 kts | 331° |
| 2026-04-23 11:29 | 64.81647 | -52.31349 | 13425 ft | 337 kts | 330° |
| 2026-04-23 11:29 | 64.83760 | -52.33686 | 13423 ft | 338 kts | 331° |
| 2026-04-23 11:29 | 64.85889 | -52.36047 | 13427 ft | 338 kts | 330° |
| 2026-04-23 11:30 | 64.88012 | -52.38416 | 13431 ft | 338 kts | 331° |
| 2026-04-23 11:30 | 64.90133 | -52.40755 | 13422 ft | 338 kts | 330° |
| 2026-04-23 11:30 | 64.92261 | -52.43126 | 13427 ft | 338 kts | 331° |
| 2026-04-23 11:30 | 64.94353 | -52.45457 | 13430 ft | 338 kts | 330° |
| 2026-04-23 11:31 | 64.96497 | -52.47855 | 13419 ft | 339 kts | 330° |
| 2026-04-23 11:31 | 64.98608 | -52.50216 | 13425 ft | 339 kts | 330° |
| 2026-04-23 11:31 | 65.00729 | -52.52594 | 13433 ft | 340 kts | 330° |
| 2026-04-23 11:31 | 65.02879 | -52.55009 | 13424 ft | 341 kts | 330° |
| 2026-04-23 11:32 | 65.04998 | -52.57393 | 13423 ft | 334 kts | 330° |
| 2026-04-23 11:32 | 65.07055 | -52.59707 | 13125 ft | 329 kts | 330° |
| 2026-04-23 11:32 | 65.09116 | -52.62037 | 12733 ft | 330 kts | 330° |
| 2026-04-23 11:32 | 65.11170 | -52.64356 | 12320 ft | 330 kts | 331° |
| 2026-04-23 11:33 | 65.13250 | -52.66718 | 11885 ft | 323 kts | 331° |
| 2026-04-23 11:33 | 65.15214 | -52.68927 | 11439 ft | 311 kts | 329° |
| 2026-04-23 11:33 | 65.17140 | -52.71128 | 10999 ft | 301 kts | 330° |
| 2026-04-23 11:33 | 65.18984 | -52.73221 | 10560 ft | 295 kts | 330° |
| 2026-04-23 11:34 | 65.20821 | -52.75327 | 10150 ft | 289 kts | 332° |
| 2026-04-23 11:34 | 65.22485 | -52.77232 | 9777 ft | 284 kts | 331° |
| 2026-04-23 11:34 | 65.22729 | -52.77511 | 9722 ft | 283 kts | 330° |
| 2026-04-23 11:37 | 65.23785 | -52.78716 | 9459 ft | 281 kts | 331° |
| 2026-04-23 11:37 | 65.25533 | -52.80676 | 9052 ft | 278 kts | 334° |
| 2026-04-23 11:37 | 65.27367 | -52.81960 | 8648 ft | 277 kts | 353° |
| 2026-04-23 11:38 | 65.29230 | -52.81198 | 8285 ft | 273 kts | 20° |
| 2026-04-23 11:38 | 65.31037 | -52.80072 | 7907 ft | 269 kts | 13° |
| 2026-04-23 11:38 | 65.32896 | -52.79343 | 7480 ft | 268 kts | 358° |
| 2026-04-23 11:38 | 65.34669 | -52.80426 | 7118 ft | 263 kts | 340° |
| 2026-04-23 11:39 | 65.36343 | -52.82069 | 6724 ft | 260 kts | 335° |
| 2026-04-23 11:39 | 65.37913 | -52.84130 | 6318 ft | 258 kts | 320° |
| 2026-04-23 11:39 | 65.39116 | -52.87193 | 5938 ft | 255 kts | 309° |
| 2026-04-23 11:39 | 65.40244 | -52.90429 | 5553 ft | 253 kts | 309° |
| 2026-04-23 11:40 | 65.41324 | -52.93668 | 5114 ft | 244 kts | 305° |
| 2026-04-23 11:40 | 65.42217 | -52.97027 | 4742 ft | 235 kts | 299° |
| 2026-04-23 11:40 | 65.43023 | -53.00363 | 4341 ft | 227 kts | 298° |
| 2026-04-23 11:40 | 65.43778 | -53.03624 | 4092 ft | 214 kts | 299° |
| 2026-04-23 11:41 | 65.44477 | -53.06601 | 4060 ft | 196 kts | 300° |
| 2026-04-23 11:41 | 65.45106 | -53.09309 | 4073 ft | 180 kts | 300° |
| 2026-04-23 11:41 | 65.45523 | -53.11988 | 3985 ft | 169 kts | 268° |
| 2026-04-23 11:41 | 65.45060 | -53.14216 | 4047 ft | 140 kts | 209° |
| 2026-04-23 11:42 | 65.44199 | -53.14418 | 3986 ft | 124 kts | 150° |
| 2026-04-23 11:42 | 65.43850 | -53.12764 | 4020 ft | 114 kts | 84° |
| 2026-04-23 11:42 | 65.44092 | -53.11030 | 4051 ft | 109 kts | 80° |
| 2026-04-23 11:42 | 65.44293 | -53.09126 | 4206 ft | 128 kts | 88° |
| 2026-04-23 11:43 | 65.44080 | -53.06843 | 4255 ft | 158 kts | 114° |
| 2026-04-23 11:43 | 65.43562 | -53.04342 | 4152 ft | 177 kts | 120° |
| 2026-04-23 11:43 | 65.42938 | -53.01668 | 4103 ft | 188 kts | 120° |
| 2026-04-23 11:43 | 65.42294 | -52.98965 | 4105 ft | 183 kts | 120° |
| 2026-04-23 11:44 | 65.41701 | -52.96375 | 4084 ft | 171 kts | 121° |
| 2026-04-23 11:44 | 65.41125 | -52.93953 | 4048 ft | 164 kts | 120° |
| 2026-04-23 11:44 | 65.40540 | -52.91709 | 4037 ft | 152 kts | 129° |
| 2026-04-23 11:44 | 65.39831 | -52.89920 | 3984 ft | 146 kts | 140° |
| 2026-04-23 11:45 | 65.39011 | -52.88468 | 3830 ft | 147 kts | 142° |
| 2026-04-23 11:45 | 65.38184 | -52.87065 | 3627 ft | 148 kts | 142° |
| 2026-04-23 11:45 | 65.37351 | -52.85580 | 3475 ft | 146 kts | 141° |
| 2026-04-23 11:45 | 65.36554 | -52.84106 | 3242 ft | 148 kts | 141° |
| 2026-04-23 11:46 | 65.35754 | -52.82573 | 3034 ft | 147 kts | 139° |
| 2026-04-23 11:46 | 65.34967 | -52.81055 | 2857 ft | 145 kts | 140° |
| 2026-04-23 11:46 | 65.34192 | -52.79548 | 2658 ft | 143 kts | 139° |
| 2026-04-23 11:46 | 65.33360 | -52.78289 | 2462 ft | 143 kts | 156° |
| 2026-04-23 11:47 | 65.32679 | -52.76752 | 2254 ft | 140 kts | 106° |
| 2026-04-23 11:47 | 65.32889 | -52.74564 | 2110 ft | 138 kts | 54° |
| 2026-04-23 11:47 | 65.33586 | -52.73131 | 2065 ft | 134 kts | 18° |
| 2026-04-23 11:47 | 65.34445 | -52.73595 | 2078 ft | 125 kts | 332° |
| 2026-04-23 11:48 | 65.35166 | -52.74495 | 2180 ft | 111 kts | 334° |
| 2026-04-23 11:48 | 65.35648 | -52.75909 | 2085 ft | 114 kts | 291° |
| 2026-04-23 11:48 | 65.36053 | -52.77470 | 2093 ft | 108 kts | 308° |
| 2026-04-23 11:48 | 65.36513 | -52.78923 | 2092 ft | 109 kts | 308° |
| 2026-04-23 11:49 | 65.36977 | -52.80393 | 1894 ft | 111 kts | 308° |
| 2026-04-23 11:49 | 65.37440 | -52.81856 | 1597 ft | 109 kts | 309° |
| 2026-04-23 11:49 | 65.37875 | -52.83236 | 1400 ft | 99 kts | 309° |
| 2026-04-23 11:49 | 65.38273 | -52.84500 | 1236 ft | 94 kts | 310° |
| 2026-04-23 11:50 | 65.38680 | -52.85790 | 1166 ft | 101 kts | 310° |
| 2026-04-23 11:50 | 65.39136 | -52.87235 | 967 ft | 119 kts | 309° |
| 2026-04-23 11:50 | 65.39631 | -52.88810 | 700 ft | 118 kts | 310° |
| 2026-04-23 11:50 | 65.40112 | -52.90328 | 533 ft | 110 kts | 311° |
| 2026-04-23 11:51 | 65.40554 | -52.91812 | 301 ft | 112 kts | 309° |
| 2026-04-23 11:51 | 65.41010 | -52.93181 | 127 ft | 99 kts | 311° |
| 2026-04-23 11:51 | 65.41354 | -52.94262 | 72 ft | 50 kts | 310° |
| 2026-04-23 11:51 | 65.41446 | -52.94553 | 73 ft | 4 kts | 90° |
| 2026-04-23 11:52 | 65.41420 | -52.94489 | 72 ft | 10 kts | 129° |
| 2026-04-23 11:52 | 65.41357 | -52.94273 | 72 ft | 21 kts | 127° |
| 2026-04-23 11:52 | 65.41254 | -52.93949 | 80 ft | 26 kts | 126° |
| 2026-04-23 11:52 | 65.41135 | -52.93561 | 93 ft | 31 kts | 126° |
| 2026-04-23 11:53 | 65.41140 | -52.93373 | 96 ft | 8 kts | 21° |
| 2026-04-23 11:53 | 65.41174 | -52.93326 | 97 ft | 3 kts | 115° |
| 2026-04-23 11:53 | 65.41154 | -52.93336 | 97 ft | 1 kts | 207° |
| 2026-04-23 11:53 | 65.41152 | -52.93338 | 97 ft | 0 kts | 202° |